sensor_id;sensor_type;location;lat;lon;timestamp;P1;durP1;ratioP1;P2;durP2;ratioP2
12088;SDS011;6107;49.078;8.578;2022-07-23T00:00:02;10.63;;;9.52;;
12088;SDS011;6107;49.078;8.578;2022-07-23T00:02:29;14.52;;;9.93;;
12088;SDS011;6107;49.078;8.578;2022-07-23T00:04:54;11.32;;;10.18;;
12088;SDS011;6107;49.078;8.578;2022-07-23T00:07:20;12.50;;;9.90;;
12088;SDS011;6107;49.078;8.578;2022-07-23T00:09:45;11.68;;;8.82;;
12088;SDS011;6107;49.078;8.578;2022-07-23T00:12:11;12.27;;;9.68;;
12088;SDS011;6107;49.078;8.578;2022-07-23T00:14:36;10.88;;;9.77;;
12088;SDS011;6107;49.078;8.578;2022-07-23T00:17:02;11.35;;;9.60;;
12088;SDS011;6107;49.078;8.578;2022-07-23T00:19:27;11.13;;;8.90;;
12088;SDS011;6107;49.078;8.578;2022-07-23T00:21:54;9.98;;;8.82;;
12088;SDS011;6107;49.078;8.578;2022-07-23T00:24:19;10.18;;;8.65;;
12088;SDS011;6107;49.078;8.578;2022-07-23T00:26:45;9.90;;;8.48;;
12088;SDS011;6107;49.078;8.578;2022-07-23T00:29:11;9.40;;;8.50;;
12088;SDS011;6107;49.078;8.578;2022-07-23T00:31:36;11.73;;;8.93;;
12088;SDS011;6107;49.078;8.578;2022-07-23T00:34:02;10.85;;;9.02;;
12088;SDS011;6107;49.078;8.578;2022-07-23T00:36:28;9.38;;;8.38;;
12088;SDS011;6107;49.078;8.578;2022-07-23T00:38:53;9.70;;;8.73;;
12088;SDS011;6107;49.078;8.578;2022-07-23T00:41:19;12.45;;;9.32;;
12088;SDS011;6107;49.078;8.578;2022-07-23T00:43:45;11.68;;;8.82;;
12088;SDS011;6107;49.078;8.578;2022-07-23T00:46:10;9.20;;;8.18;;
12088;SDS011;6107;49.078;8.578;2022-07-23T00:48:36;11.25;;;9.07;;
12088;SDS011;6107;49.078;8.578;2022-07-23T00:51:01;10.93;;;9.00;;
12088;SDS011;6107;49.078;8.578;2022-07-23T00:53:27;13.02;;;9.02;;
12088;SDS011;6107;49.078;8.578;2022-07-23T00:55:53;10.00;;;7.97;;
12088;SDS011;6107;49.078;8.578;2022-07-23T00:58:19;10.10;;;8.98;;
12088;SDS011;6107;49.078;8.578;2022-07-23T01:00:45;10.93;;;9.20;;
12088;SDS011;6107;49.078;8.578;2022-07-23T01:03:11;10.18;;;8.25;;
12088;SDS011;6107;49.078;8.578;2022-07-23T01:05:37;10.13;;;9.07;;
12088;SDS011;6107;49.078;8.578;2022-07-23T01:08:02;9.95;;;8.95;;
12088;SDS011;6107;49.078;8.578;2022-07-23T01:10:29;12.60;;;8.95;;
12088;SDS011;6107;49.078;8.578;2022-07-23T01:13:07;9.85;;;8.82;;
12088;SDS011;6107;49.078;8.578;2022-07-23T01:15:35;10.70;;;9.30;;
12088;SDS011;6107;49.078;8.578;2022-07-23T01:18:02;11.07;;;8.35;;
12088;SDS011;6107;49.078;8.578;2022-07-23T01:20:29;11.02;;;8.80;;
12088;SDS011;6107;49.078;8.578;2022-07-23T01:22:55;9.55;;;8.57;;
12088;SDS011;6107;49.078;8.578;2022-07-23T01:25:21;10.13;;;8.75;;
12088;SDS011;6107;49.078;8.578;2022-07-23T01:27:47;12.43;;;8.70;;
12088;SDS011;6107;49.078;8.578;2022-07-23T01:30:13;10.88;;;8.70;;
12088;SDS011;6107;49.078;8.578;2022-07-23T01:32:39;9.07;;;7.88;;
12088;SDS011;6107;49.078;8.578;2022-07-23T01:35:04;10.77;;;8.95;;
12088;SDS011;6107;49.078;8.578;2022-07-23T01:37:31;10.75;;;9.13;;
12088;SDS011;6107;49.078;8.578;2022-07-23T01:39:56;9.88;;;8.85;;
12088;SDS011;6107;49.078;8.578;2022-07-23T01:42:22;10.70;;;8.68;;
12088;SDS011;6107;49.078;8.578;2022-07-23T01:44:48;11.10;;;9.00;;
12088;SDS011;6107;49.078;8.578;2022-07-23T01:47:14;11.18;;;9.40;;
12088;SDS011;6107;49.078;8.578;2022-07-23T01:49:40;11.00;;;9.30;;
12088;SDS011;6107;49.078;8.578;2022-07-23T01:52:06;11.95;;;9.02;;
12088;SDS011;6107;49.078;8.578;2022-07-23T01:54:35;11.07;;;9.05;;
12088;SDS011;6107;49.078;8.578;2022-07-23T01:57:01;11.45;;;8.68;;
12088;SDS011;6107;49.078;8.578;2022-07-23T01:59:27;10.82;;;9.07;;
12088;SDS011;6107;49.078;8.578;2022-07-23T02:01:54;11.55;;;9.00;;
12088;SDS011;6107;49.078;8.578;2022-07-23T02:04:20;10.57;;;9.13;;
12088;SDS011;6107;49.078;8.578;2022-07-23T02:06:47;9.77;;;8.60;;
12088;SDS011;6107;49.078;8.578;2022-07-23T02:09:13;11.45;;;9.40;;
12088;SDS011;6107;49.078;8.578;2022-07-23T02:11:38;12.82;;;9.50;;
12088;SDS011;6107;49.078;8.578;2022-07-23T02:14:04;9.48;;;8.48;;
12088;SDS011;6107;49.078;8.578;2022-07-23T02:16:30;12.52;;;8.80;;
12088;SDS011;6107;49.078;8.578;2022-07-23T02:18:55;11.05;;;8.98;;
12088;SDS011;6107;49.078;8.578;2022-07-23T02:21:21;11.50;;;9.05;;
12088;SDS011;6107;49.078;8.578;2022-07-23T02:23:47;11.55;;;9.40;;
12088;SDS011;6107;49.078;8.578;2022-07-23T02:26:12;10.05;;;8.95;;
12088;SDS011;6107;49.078;8.578;2022-07-23T02:28:38;12.75;;;9.95;;
12088;SDS011;6107;49.078;8.578;2022-07-23T02:31:03;11.55;;;9.05;;
12088;SDS011;6107;49.078;8.578;2022-07-23T02:33:29;10.45;;;8.88;;
12088;SDS011;6107;49.078;8.578;2022-07-23T02:35:54;12.63;;;8.93;;
12088;SDS011;6107;49.078;8.578;2022-07-23T02:38:20;10.60;;;9.18;;
12088;SDS011;6107;49.078;8.578;2022-07-23T02:40:46;11.00;;;9.40;;
12088;SDS011;6107;49.078;8.578;2022-07-23T02:43:11;13.15;;;9.10;;
12088;SDS011;6107;49.078;8.578;2022-07-23T02:45:37;10.50;;;9.40;;
12088;SDS011;6107;49.078;8.578;2022-07-23T02:48:02;11.80;;;9.23;;
12088;SDS011;6107;49.078;8.578;2022-07-23T02:50:28;12.20;;;9.05;;
12088;SDS011;6107;49.078;8.578;2022-07-23T02:52:54;10.00;;;8.43;;
12088;SDS011;6107;49.078;8.578;2022-07-23T02:55:19;10.73;;;8.60;;
12088;SDS011;6107;49.078;8.578;2022-07-23T02:57:45;12.55;;;9.60;;
12088;SDS011;6107;49.078;8.578;2022-07-23T03:00:11;15.52;;;10.00;;
12088;SDS011;6107;49.078;8.578;2022-07-23T03:02:36;9.73;;;8.60;;
12088;SDS011;6107;49.078;8.578;2022-07-23T03:05:02;11.27;;;8.95;;
12088;SDS011;6107;49.078;8.578;2022-07-23T03:07:30;11.18;;;9.10;;
12088;SDS011;6107;49.078;8.578;2022-07-23T03:09:55;9.73;;;8.73;;
12088;SDS011;6107;49.078;8.578;2022-07-23T03:12:21;13.95;;;9.27;;
12088;SDS011;6107;49.078;8.578;2022-07-23T03:14:47;11.18;;;8.88;;
12088;SDS011;6107;49.078;8.578;2022-07-23T03:17:12;12.50;;;9.13;;
12088;SDS011;6107;49.078;8.578;2022-07-23T03:19:38;13.65;;;9.38;;
12088;SDS011;6107;49.078;8.578;2022-07-23T03:22:03;10.20;;;8.80;;
12088;SDS011;6107;49.078;8.578;2022-07-23T03:24:30;11.85;;;8.70;;
12088;SDS011;6107;49.078;8.578;2022-07-23T03:27:14;11.95;;;9.10;;
12088;SDS011;6107;49.078;8.578;2022-07-23T03:29:39;12.20;;;8.95;;
12088;SDS011;6107;49.078;8.578;2022-07-23T03:32:05;11.85;;;9.25;;
12088;SDS011;6107;49.078;8.578;2022-07-23T03:34:31;10.50;;;8.40;;
12088;SDS011;6107;49.078;8.578;2022-07-23T03:36:57;11.93;;;9.75;;
12088;SDS011;6107;49.078;8.578;2022-07-23T03:39:22;13.45;;;9.45;;
12088;SDS011;6107;49.078;8.578;2022-07-23T03:41:48;11.13;;;8.57;;
12088;SDS011;6107;49.078;8.578;2022-07-23T03:44:13;10.35;;;8.82;;
12088;SDS011;6107;49.078;8.578;2022-07-23T03:46:39;10.52;;;8.55;;
12088;SDS011;6107;49.078;8.578;2022-07-23T03:49:04;10.18;;;8.80;;
12088;SDS011;6107;49.078;8.578;2022-07-23T03:51:30;10.35;;;8.65;;
12088;SDS011;6107;49.078;8.578;2022-07-23T03:53:55;10.30;;;8.75;;
12088;SDS011;6107;49.078;8.578;2022-07-23T03:56:21;10.80;;;8.07;;
12088;SDS011;6107;49.078;8.578;2022-07-23T03:58:47;10.40;;;9.20;;
12088;SDS011;6107;49.078;8.578;2022-07-23T04:01:12;11.32;;;9.07;;
12088;SDS011;6107;49.078;8.578;2022-07-23T04:03:38;9.65;;;8.52;;
12088;SDS011;6107;49.078;8.578;2022-07-23T04:06:04;10.30;;;8.43;;
12088;SDS011;6107;49.078;8.578;2022-07-23T04:08:30;10.02;;;8.27;;
12088;SDS011;6107;49.078;8.578;2022-07-23T04:10:56;10.15;;;8.43;;
12088;SDS011;6107;49.078;8.578;2022-07-23T04:13:21;10.52;;;8.85;;
12088;SDS011;6107;49.078;8.578;2022-07-23T04:15:47;10.13;;;9.07;;
12088;SDS011;6107;49.078;8.578;2022-07-23T04:18:13;12.60;;;10.02;;
12088;SDS011;6107;49.078;8.578;2022-07-23T04:20:38;9.75;;;8.75;;
12088;SDS011;6107;49.078;8.578;2022-07-23T04:23:04;11.15;;;9.13;;
12088;SDS011;6107;49.078;8.578;2022-07-23T04:25:29;11.45;;;9.15;;
12088;SDS011;6107;49.078;8.578;2022-07-23T04:27:55;11.23;;;9.02;;
12088;SDS011;6107;49.078;8.578;2022-07-23T04:30:20;10.93;;;8.70;;
12088;SDS011;6107;49.078;8.578;2022-07-23T04:32:46;11.40;;;9.00;;
12088;SDS011;6107;49.078;8.578;2022-07-23T04:35:11;11.07;;;9.02;;
12088;SDS011;6107;49.078;8.578;2022-07-23T04:37:37;10.43;;;9.05;;
12088;SDS011;6107;49.078;8.578;2022-07-23T04:40:03;11.40;;;9.60;;
12088;SDS011;6107;49.078;8.578;2022-07-23T04:42:29;11.52;;;9.48;;
12088;SDS011;6107;49.078;8.578;2022-07-23T04:44:54;11.50;;;9.50;;
12088;SDS011;6107;49.078;8.578;2022-07-23T04:47:20;14.25;;;9.52;;
12088;SDS011;6107;49.078;8.578;2022-07-23T04:49:45;12.73;;;9.30;;
12088;SDS011;6107;49.078;8.578;2022-07-23T04:52:11;10.77;;;9.48;;
12088;SDS011;6107;49.078;8.578;2022-07-23T04:54:36;12.50;;;10.32;;
12088;SDS011;6107;49.078;8.578;2022-07-23T04:57:02;11.18;;;9.75;;
12088;SDS011;6107;49.078;8.578;2022-07-23T04:59:27;12.25;;;9.52;;
12088;SDS011;6107;49.078;8.578;2022-07-23T05:01:53;14.90;;;9.70;;
12088;SDS011;6107;49.078;8.578;2022-07-23T05:04:19;11.07;;;9.70;;
12088;SDS011;6107;49.078;8.578;2022-07-23T05:06:44;10.50;;;9.40;;
12088;SDS011;6107;49.078;8.578;2022-07-23T05:09:10;13.57;;;9.75;;
12088;SDS011;6107;49.078;8.578;2022-07-23T05:11:35;10.07;;;8.77;;
12088;SDS011;6107;49.078;8.578;2022-07-23T05:14:01;11.13;;;8.98;;
12088;SDS011;6107;49.078;8.578;2022-07-23T05:16:26;10.50;;;9.40;;
12088;SDS011;6107;49.078;8.578;2022-07-23T05:18:52;11.57;;;9.27;;
12088;SDS011;6107;49.078;8.578;2022-07-23T05:21:18;9.88;;;8.57;;
12088;SDS011;6107;49.078;8.578;2022-07-23T05:23:44;10.55;;;8.68;;
12088;SDS011;6107;49.078;8.578;2022-07-23T05:26:10;10.73;;;8.50;;
12088;SDS011;6107;49.078;8.578;2022-07-23T05:28:35;9.95;;;8.00;;
12088;SDS011;6107;49.078;8.578;2022-07-23T05:31:01;11.45;;;8.93;;
12088;SDS011;6107;49.078;8.578;2022-07-23T05:33:26;10.60;;;8.73;;
12088;SDS011;6107;49.078;8.578;2022-07-23T05:35:52;12.38;;;9.10;;
12088;SDS011;6107;49.078;8.578;2022-07-23T05:38:18;14.30;;;9.60;;
12088;SDS011;6107;49.078;8.578;2022-07-23T05:40:44;11.27;;;9.10;;
12088;SDS011;6107;49.078;8.578;2022-07-23T05:43:09;10.45;;;8.90;;
12088;SDS011;6107;49.078;8.578;2022-07-23T05:45:35;11.75;;;9.18;;
12088;SDS011;6107;49.078;8.578;2022-07-23T05:48:00;10.50;;;8.93;;
12088;SDS011;6107;49.078;8.578;2022-07-23T05:50:26;11.52;;;8.88;;
12088;SDS011;6107;49.078;8.578;2022-07-23T05:52:51;9.70;;;8.65;;
12088;SDS011;6107;49.078;8.578;2022-07-23T05:55:17;10.23;;;8.02;;
12088;SDS011;6107;49.078;8.578;2022-07-23T05:57:43;11.80;;;8.57;;
12088;SDS011;6107;49.078;8.578;2022-07-23T06:00:08;10.45;;;8.77;;
12088;SDS011;6107;49.078;8.578;2022-07-23T06:02:35;12.77;;;9.57;;
12088;SDS011;6107;49.078;8.578;2022-07-23T06:05:02;11.45;;;9.20;;
12088;SDS011;6107;49.078;8.578;2022-07-23T06:07:28;13.48;;;7.88;;
12088;SDS011;6107;49.078;8.578;2022-07-23T06:09:53;9.80;;;8.30;;
12088;SDS011;6107;49.078;8.578;2022-07-23T06:12:19;11.52;;;8.52;;
12088;SDS011;6107;49.078;8.578;2022-07-23T06:14:45;13.68;;;8.93;;
12088;SDS011;6107;49.078;8.578;2022-07-23T06:17:14;16.50;;;9.68;;
12088;SDS011;6107;49.078;8.578;2022-07-23T06:19:45;17.00;;;9.85;;
12088;SDS011;6107;49.078;8.578;2022-07-23T06:22:10;13.65;;;9.07;;
12088;SDS011;6107;49.078;8.578;2022-07-23T06:24:36;14.52;;;9.27;;
12088;SDS011;6107;49.078;8.578;2022-07-23T06:27:02;16.33;;;10.07;;
12088;SDS011;6107;49.078;8.578;2022-07-23T06:29:28;17.33;;;10.13;;
12088;SDS011;6107;49.078;8.578;2022-07-23T06:31:53;12.75;;;10.60;;
12088;SDS011;6107;49.078;8.578;2022-07-23T06:34:19;14.07;;;11.05;;
12088;SDS011;6107;49.078;8.578;2022-07-23T06:36:44;14.10;;;10.95;;
12088;SDS011;6107;49.078;8.578;2022-07-23T06:39:10;13.60;;;10.48;;
12088;SDS011;6107;49.078;8.578;2022-07-23T06:41:36;14.80;;;9.52;;
12088;SDS011;6107;49.078;8.578;2022-07-23T06:44:01;11.93;;;8.65;;
12088;SDS011;6107;49.078;8.578;2022-07-23T06:46:27;13.52;;;8.60;;
12088;SDS011;6107;49.078;8.578;2022-07-23T06:48:52;13.35;;;9.23;;
12088;SDS011;6107;49.078;8.578;2022-07-23T06:51:18;13.00;;;10.80;;
12088;SDS011;6107;49.078;8.578;2022-07-23T06:53:44;14.05;;;10.25;;
12088;SDS011;6107;49.078;8.578;2022-07-23T06:56:10;12.20;;;9.93;;
12088;SDS011;6107;49.078;8.578;2022-07-23T06:58:35;15.98;;;11.30;;
12088;SDS011;6107;49.078;8.578;2022-07-23T07:01:01;12.45;;;10.52;;
12088;SDS011;6107;49.078;8.578;2022-07-23T07:03:27;15.27;;;12.45;;
12088;SDS011;6107;49.078;8.578;2022-07-23T07:05:53;14.38;;;12.45;;
12088;SDS011;6107;49.078;8.578;2022-07-23T07:08:18;15.77;;;12.50;;
12088;SDS011;6107;49.078;8.578;2022-07-23T07:10:44;13.65;;;11.60;;
12088;SDS011;6107;49.078;8.578;2022-07-23T07:13:10;13.63;;;11.38;;
12088;SDS011;6107;49.078;8.578;2022-07-23T07:15:35;13.02;;;11.13;;
12088;SDS011;6107;49.078;8.578;2022-07-23T07:18:01;11.95;;;10.73;;
12088;SDS011;6107;49.078;8.578;2022-07-23T07:20:26;14.23;;;11.05;;
12088;SDS011;6107;49.078;8.578;2022-07-23T07:22:52;13.70;;;10.90;;
12088;SDS011;6107;49.078;8.578;2022-07-23T07:25:17;11.63;;;10.43;;
12088;SDS011;6107;49.078;8.578;2022-07-23T07:27:43;12.48;;;11.18;;
12088;SDS011;6107;49.078;8.578;2022-07-23T07:30:09;13.07;;;10.27;;
12088;SDS011;6107;49.078;8.578;2022-07-23T07:32:35;10.95;;;9.77;;
12088;SDS011;6107;49.078;8.578;2022-07-23T07:35:02;13.18;;;9.40;;
12088;SDS011;6107;49.078;8.578;2022-07-23T07:37:29;9.70;;;8.75;;
12088;SDS011;6107;49.078;8.578;2022-07-23T07:39:55;10.82;;;9.05;;
12088;SDS011;6107;49.078;8.578;2022-07-23T07:42:21;11.60;;;9.68;;
12088;SDS011;6107;49.078;8.578;2022-07-23T07:44:46;11.32;;;10.00;;
12088;SDS011;6107;49.078;8.578;2022-07-23T07:47:12;10.95;;;8.35;;
12088;SDS011;6107;49.078;8.578;2022-07-23T07:49:40;15.48;;;9.45;;
12088;SDS011;6107;49.078;8.578;2022-07-23T07:52:06;10.65;;;9.55;;
12088;SDS011;6107;49.078;8.578;2022-07-23T07:54:31;10.18;;;9.07;;
12088;SDS011;6107;49.078;8.578;2022-07-23T07:56:57;10.15;;;9.13;;
12088;SDS011;6107;49.078;8.578;2022-07-23T07:59:22;10.93;;;8.93;;
12088;SDS011;6107;49.078;8.578;2022-07-23T08:01:48;12.05;;;9.63;;
12088;SDS011;6107;49.078;8.578;2022-07-23T08:04:14;10.13;;;9.00;;
12088;SDS011;6107;49.078;8.578;2022-07-23T08:06:39;8.43;;;7.07;;
12088;SDS011;6107;49.078;8.578;2022-07-23T08:09:05;9.80;;;8.27;;
12088;SDS011;6107;49.078;8.578;2022-07-23T08:11:30;9.73;;;7.57;;
12088;SDS011;6107;49.078;8.578;2022-07-23T08:13:56;10.07;;;7.93;;
12088;SDS011;6107;49.078;8.578;2022-07-23T08:16:21;8.50;;;7.50;;
12088;SDS011;6107;49.078;8.578;2022-07-23T08:18:47;9.95;;;8.88;;
12088;SDS011;6107;49.078;8.578;2022-07-23T08:21:13;12.15;;;8.75;;
12088;SDS011;6107;49.078;8.578;2022-07-23T08:23:38;10.05;;;8.95;;
12088;SDS011;6107;49.078;8.578;2022-07-23T08:26:04;11.13;;;8.95;;
12088;SDS011;6107;49.078;8.578;2022-07-23T08:28:29;10.00;;;7.90;;
12088;SDS011;6107;49.078;8.578;2022-07-23T08:30:58;9.55;;;8.55;;
12088;SDS011;6107;49.078;8.578;2022-07-23T08:33:24;9.40;;;8.30;;
12088;SDS011;6107;49.078;8.578;2022-07-23T08:35:50;10.25;;;8.95;;
12088;SDS011;6107;49.078;8.578;2022-07-23T08:38:18;11.30;;;8.68;;
12088;SDS011;6107;49.078;8.578;2022-07-23T08:40:47;10.98;;;8.75;;
12088;SDS011;6107;49.078;8.578;2022-07-23T08:43:17;11.95;;;8.88;;
12088;SDS011;6107;49.078;8.578;2022-07-23T08:45:45;12.93;;;9.35;;
12088;SDS011;6107;49.078;8.578;2022-07-23T08:48:22;15.48;;;9.18;;
12088;SDS011;6107;49.078;8.578;2022-07-23T08:50:50;10.95;;;8.90;;
12088;SDS011;6107;49.078;8.578;2022-07-23T08:53:17;10.02;;;9.02;;
12088;SDS011;6107;49.078;8.578;2022-07-23T08:55:44;10.18;;;8.98;;
12088;SDS011;6107;49.078;8.578;2022-07-23T08:58:10;11.77;;;9.32;;
12088;SDS011;6107;49.078;8.578;2022-07-23T09:00:37;11.50;;;9.45;;
12088;SDS011;6107;49.078;8.578;2022-07-23T09:03:03;10.50;;;9.35;;
12088;SDS011;6107;49.078;8.578;2022-07-23T09:05:28;13.43;;;10.32;;
12088;SDS011;6107;49.078;8.578;2022-07-23T09:10:30;9.63;;;8.63;;
12088;SDS011;6107;49.078;8.578;2022-07-23T09:13:27;11.70;;;8.80;;
12088;SDS011;6107;49.078;8.578;2022-07-23T09:16:12;11.30;;;9.07;;
12088;SDS011;6107;49.078;8.578;2022-07-23T09:21:37;12.65;;;10.07;;
12088;SDS011;6107;49.078;8.578;2022-07-23T09:24:04;10.23;;;9.15;;
12088;SDS011;6107;49.078;8.578;2022-07-23T09:31:31;10.35;;;9.07;;
12088;SDS011;6107;49.078;8.578;2022-07-23T09:36:48;10.23;;;9.23;;
12088;SDS011;6107;49.078;8.578;2022-07-23T09:39:15;10.40;;;9.40;;
12088;SDS011;6107;49.078;8.578;2022-07-23T09:41:49;11.48;;;9.98;;
12088;SDS011;6107;49.078;8.578;2022-07-23T09:44:15;10.68;;;9.30;;
12088;SDS011;6107;49.078;8.578;2022-07-23T09:46:44;10.07;;;8.88;;
12088;SDS011;6107;49.078;8.578;2022-07-23T09:49:21;11.30;;;10.02;;
12088;SDS011;6107;49.078;8.578;2022-07-23T09:54:19;10.15;;;9.25;;
12088;SDS011;6107;49.078;8.578;2022-07-23T09:56:47;11.13;;;10.02;;
12088;SDS011;6107;49.078;8.578;2022-07-23T09:59:14;15.23;;;10.13;;
12088;SDS011;6107;49.078;8.578;2022-07-23T10:01:43;11.75;;;9.68;;
12088;SDS011;6107;49.078;8.578;2022-07-23T10:04:10;12.65;;;9.88;;
12088;SDS011;6107;49.078;8.578;2022-07-23T10:06:38;12.45;;;10.13;;
12088;SDS011;6107;49.078;8.578;2022-07-23T10:09:05;10.45;;;9.30;;
12088;SDS011;6107;49.078;8.578;2022-07-23T10:11:33;10.48;;;9.38;;
12088;SDS011;6107;49.078;8.578;2022-07-23T10:13:59;11.85;;;9.45;;
12088;SDS011;6107;49.078;8.578;2022-07-23T10:16:28;10.25;;;9.18;;
12088;SDS011;6107;49.078;8.578;2022-07-23T10:18:54;10.48;;;9.43;;
12088;SDS011;6107;49.078;8.578;2022-07-23T10:24:10;11.82;;;10.43;;
12088;SDS011;6107;49.078;8.578;2022-07-23T10:26:42;12.45;;;10.48;;
12088;SDS011;6107;49.078;8.578;2022-07-23T10:29:54;12.82;;;10.70;;
12088;SDS011;6107;49.078;8.578;2022-07-23T10:37:43;11.18;;;10.02;;
12088;SDS011;6107;49.078;8.578;2022-07-23T10:40:17;11.38;;;9.27;;
12088;SDS011;6107;49.078;8.578;2022-07-23T10:42:48;9.27;;;8.38;;
12088;SDS011;6107;49.078;8.578;2022-07-23T10:45:33;9.15;;;8.07;;
12088;SDS011;6107;49.078;8.578;2022-07-23T10:48:22;9.55;;;8.15;;
12088;SDS011;6107;49.078;8.578;2022-07-23T10:56:16;7.63;;;6.90;;
12088;SDS011;6107;49.078;8.578;2022-07-23T10:59:05;7.80;;;7.05;;
12088;SDS011;6107;49.078;8.578;2022-07-23T11:01:35;9.13;;;7.90;;
12088;SDS011;6107;49.078;8.578;2022-07-23T11:04:02;9.20;;;7.68;;
12088;SDS011;6107;49.078;8.578;2022-07-23T11:17:27;7.63;;;6.63;;
12088;SDS011;6107;49.078;8.578;2022-07-23T11:22:38;9.02;;;7.15;;
12088;SDS011;6107;49.078;8.578;2022-07-23T11:25:05;7.90;;;7.10;;
12088;SDS011;6107;49.078;8.578;2022-07-23T11:27:37;8.13;;;7.32;;
12088;SDS011;6107;49.078;8.578;2022-07-23T11:30:03;8.48;;;7.60;;
12088;SDS011;6107;49.078;8.578;2022-07-23T11:32:30;8.38;;;7.32;;
12088;SDS011;6107;49.078;8.578;2022-07-23T11:34:58;8.65;;;7.75;;
12088;SDS011;6107;49.078;8.578;2022-07-23T11:40:00;9.60;;;8.27;;
12088;SDS011;6107;49.078;8.578;2022-07-23T11:42:27;9.30;;;8.23;;
12088;SDS011;6107;49.078;8.578;2022-07-23T11:44:53;9.73;;;8.73;;
12088;SDS011;6107;49.078;8.578;2022-07-23T11:47:23;9.70;;;8.55;;
12088;SDS011;6107;49.078;8.578;2022-07-23T11:49:53;10.48;;;8.07;;
12088;SDS011;6107;49.078;8.578;2022-07-23T11:52:19;9.88;;;8.75;;
12088;SDS011;6107;49.078;8.578;2022-07-23T11:54:56;10.40;;;9.02;;
12088;SDS011;6107;49.078;8.578;2022-07-23T11:57:30;14.15;;;9.05;;
12088;SDS011;6107;49.078;8.578;2022-07-23T12:02:36;9.82;;;8.82;;
12088;SDS011;6107;49.078;8.578;2022-07-23T12:05:03;9.80;;;8.90;;
12088;SDS011;6107;49.078;8.578;2022-07-23T12:09:55;11.57;;;9.48;;
12088;SDS011;6107;49.078;8.578;2022-07-23T12:12:21;10.38;;;8.73;;
12088;SDS011;6107;49.078;8.578;2022-07-23T12:14:51;11.05;;;9.15;;
12088;SDS011;6107;49.078;8.578;2022-07-23T12:17:18;10.07;;;9.18;;
12088;SDS011;6107;49.078;8.578;2022-07-23T12:19:44;9.85;;;8.68;;
12088;SDS011;6107;49.078;8.578;2022-07-23T12:22:10;10.52;;;9.43;;
12088;SDS011;6107;49.078;8.578;2022-07-23T12:27:21;12.20;;;9.48;;
12088;SDS011;6107;49.078;8.578;2022-07-23T12:29:47;9.63;;;8.60;;
12088;SDS011;6107;49.078;8.578;2022-07-23T12:32:17;11.18;;;9.70;;
12088;SDS011;6107;49.078;8.578;2022-07-23T12:34:43;9.95;;;9.05;;
12088;SDS011;6107;49.078;8.578;2022-07-23T12:43:04;9.63;;;8.73;;
12088;SDS011;6107;49.078;8.578;2022-07-23T12:45:52;10.18;;;9.13;;
12088;SDS011;6107;49.078;8.578;2022-07-23T12:48:17;9.93;;;8.93;;
12088;SDS011;6107;49.078;8.578;2022-07-23T12:50:54;10.38;;;9.35;;
12088;SDS011;6107;49.078;8.578;2022-07-23T12:53:21;9.70;;;8.80;;
12088;SDS011;6107;49.078;8.578;2022-07-23T12:55:48;10.38;;;9.27;;
12088;SDS011;6107;49.078;8.578;2022-07-23T12:58:16;10.02;;;9.02;;
12088;SDS011;6107;49.078;8.578;2022-07-23T13:01:15;10.30;;;9.10;;
12088;SDS011;6107;49.078;8.578;2022-07-23T13:03:36;10.32;;;9.32;;
12088;SDS011;6107;49.078;8.578;2022-07-23T13:06:03;10.60;;;9.60;;
12088;SDS011;6107;49.078;8.578;2022-07-23T13:08:30;9.50;;;8.60;;
12088;SDS011;6107;49.078;8.578;2022-07-23T13:10:56;9.40;;;8.50;;
12088;SDS011;6107;49.078;8.578;2022-07-23T13:13:26;10.70;;;9.38;;
12088;SDS011;6107;49.078;8.578;2022-07-23T13:15:52;9.82;;;8.82;;
12088;SDS011;6107;49.078;8.578;2022-07-23T13:18:18;10.25;;;9.13;;
12088;SDS011;6107;49.078;8.578;2022-07-23T13:20:45;12.10;;;9.52;;
12088;SDS011;6107;49.078;8.578;2022-07-23T13:23:11;10.20;;;9.07;;
12088;SDS011;6107;49.078;8.578;2022-07-23T13:25:37;10.10;;;9.20;;
12088;SDS011;6107;49.078;8.578;2022-07-23T13:28:04;10.98;;;9.07;;
12088;SDS011;6107;49.078;8.578;2022-07-23T13:30:30;9.63;;;8.43;;
12088;SDS011;6107;49.078;8.578;2022-07-23T13:32:56;10.20;;;8.60;;
12088;SDS011;6107;49.078;8.578;2022-07-23T13:35:22;9.18;;;8.25;;
12088;SDS011;6107;49.078;8.578;2022-07-23T13:37:48;10.18;;;8.60;;
12088;SDS011;6107;49.078;8.578;2022-07-23T13:40:14;10.00;;;8.30;;
12088;SDS011;6107;49.078;8.578;2022-07-23T13:42:40;10.48;;;7.78;;
12088;SDS011;6107;49.078;8.578;2022-07-23T13:45:07;9.65;;;8.52;;
12088;SDS011;6107;49.078;8.578;2022-07-23T13:47:33;9.55;;;8.65;;
12088;SDS011;6107;49.078;8.578;2022-07-23T13:49:59;11.20;;;8.70;;
12088;SDS011;6107;49.078;8.578;2022-07-23T13:52:25;9.38;;;8.48;;
12088;SDS011;6107;49.078;8.578;2022-07-23T13:54:51;10.05;;;8.65;;
12088;SDS011;6107;49.078;8.578;2022-07-23T13:57:17;9.32;;;8.43;;
12088;SDS011;6107;49.078;8.578;2022-07-23T13:59:43;9.20;;;8.30;;
12088;SDS011;6107;49.078;8.578;2022-07-23T14:02:09;10.05;;;9.05;;
12088;SDS011;6107;49.078;8.578;2022-07-23T14:04:35;9.27;;;8.40;;
12088;SDS011;6107;49.078;8.578;2022-07-23T14:07:01;9.32;;;8.43;;
12088;SDS011;6107;49.078;8.578;2022-07-23T14:09:27;9.18;;;8.32;;
12088;SDS011;6107;49.078;8.578;2022-07-23T14:11:54;9.35;;;8.45;;
12088;SDS011;6107;49.078;8.578;2022-07-23T14:14:20;9.73;;;8.73;;
12088;SDS011;6107;49.078;8.578;2022-07-23T14:16:46;9.90;;;8.90;;
12088;SDS011;6107;49.078;8.578;2022-07-23T14:19:11;9.57;;;8.57;;
12088;SDS011;6107;49.078;8.578;2022-07-23T14:21:37;9.65;;;8.57;;
12088;SDS011;6107;49.078;8.578;2022-07-23T14:24:03;10.30;;;9.07;;
12088;SDS011;6107;49.078;8.578;2022-07-23T14:26:29;9.77;;;8.65;;
12088;SDS011;6107;49.078;8.578;2022-07-23T14:28:55;10.00;;;8.45;;
12088;SDS011;6107;49.078;8.578;2022-07-23T14:31:21;8.77;;;8.00;;
12088;SDS011;6107;49.078;8.578;2022-07-23T14:33:48;10.05;;;8.77;;
12088;SDS011;6107;49.078;8.578;2022-07-23T14:36:14;9.35;;;8.45;;
12088;SDS011;6107;49.078;8.578;2022-07-23T14:38:40;8.52;;;7.72;;
12088;SDS011;6107;49.078;8.578;2022-07-23T14:41:06;8.88;;;7.57;;
12088;SDS011;6107;49.078;8.578;2022-07-23T14:43:33;9.82;;;8.40;;
12088;SDS011;6107;49.078;8.578;2022-07-23T14:45:59;9.50;;;8.60;;
12088;SDS011;6107;49.078;8.578;2022-07-23T14:48:25;10.98;;;8.60;;
12088;SDS011;6107;49.078;8.578;2022-07-23T14:50:51;9.48;;;8.48;;
12088;SDS011;6107;49.078;8.578;2022-07-23T14:53:17;9.15;;;8.13;;
12088;SDS011;6107;49.078;8.578;2022-07-23T14:55:43;10.75;;;9.50;;
12088;SDS011;6107;49.078;8.578;2022-07-23T14:58:09;9.45;;;8.45;;
12088;SDS011;6107;49.078;8.578;2022-07-23T15:00:35;9.55;;;8.68;;
12088;SDS011;6107;49.078;8.578;2022-07-23T15:03:01;10.93;;;8.35;;
12088;SDS011;6107;49.078;8.578;2022-07-23T15:05:27;8.90;;;8.00;;
12088;SDS011;6107;49.078;8.578;2022-07-23T15:07:54;9.75;;;8.68;;
12088;SDS011;6107;49.078;8.578;2022-07-23T15:10:20;9.32;;;8.43;;
12088;SDS011;6107;49.078;8.578;2022-07-23T15:12:46;9.15;;;7.93;;
12088;SDS011;6107;49.078;8.578;2022-07-23T15:15:12;9.48;;;8.38;;
12088;SDS011;6107;49.078;8.578;2022-07-23T15:17:38;11.45;;;8.23;;
12088;SDS011;6107;49.078;8.578;2022-07-23T15:20:04;9.25;;;8.25;;
12088;SDS011;6107;49.078;8.578;2022-07-23T15:22:31;9.68;;;8.57;;
12088;SDS011;6107;49.078;8.578;2022-07-23T15:24:57;10.40;;;8.32;;
12088;SDS011;6107;49.078;8.578;2022-07-23T15:27:24;8.85;;;7.95;;
12088;SDS011;6107;49.078;8.578;2022-07-23T15:29:50;8.73;;;7.93;;
12088;SDS011;6107;49.078;8.578;2022-07-23T15:32:16;10.48;;;9.38;;
12088;SDS011;6107;49.078;8.578;2022-07-23T15:34:42;9.43;;;8.55;;
12088;SDS011;6107;49.078;8.578;2022-07-23T15:37:08;13.32;;;9.20;;
12088;SDS011;6107;49.078;8.578;2022-07-23T15:39:34;9.35;;;8.45;;
12088;SDS011;6107;49.078;8.578;2022-07-23T15:42:00;9.50;;;8.60;;
12088;SDS011;6107;49.078;8.578;2022-07-23T15:44:26;9.70;;;8.77;;
12088;SDS011;6107;49.078;8.578;2022-07-23T15:46:52;9.27;;;8.38;;